Time;durP1;ratioP1;P1;durP2;ratioP2;P2;SDS_P1;SDS_P2;PMS_P1;PMS_P2;Temp;Humidity;BMP_temperature;BMP_pressure;BME280_temperature;BME280_humidity;BME280_pressure;Samples;Min_cycle;Max_cycle;Signal;HPM_P1;HPM_P2
2022/01/14 00:01:11;;;;;;;;;;;6.60;99.90;;;;;;5053754;28;19931;-77
2022/01/14 00:03:37;;;;;;;;;;;5.60;99.90;;;;;;5052849;28;19979;-76
2022/01/14 00:06:03;;;;;;;;;;;5.60;99.90;;;;;;5053805;28;19921;-76
2022/01/14 00:08:28;;;;;;;;;;;5.10;99.90;;;;;;5036279;28;19944;-77
2022/01/14 00:10:56;;;;;;;;;;;7.00;99.90;;;;;;5053612;28;20011;-79
2022/01/14 00:16:03;;;;;;;;;;;6.60;99.90;;;;;;5053534;28;19964;-77
2022/01/14 00:18:29;;;;;;;;;;;5.60;99.90;;;;;;5053650;28;19966;-79
2022/01/14 00:20:54;;;;;;;;;;;7.20;99.90;;;;;;5053384;28;19921;-81
2022/01/14 00:23:27;;;;;;;;;;;5.60;99.90;;;;;;5052620;28;19979;-77
2022/01/14 00:34:05;;;;;;;;;;;6.00;99.90;;;;;;5057202;28;20019;-75
2022/01/14 00:36:30;;;;;;;;;;;6.90;99.90;;;;;;5056809;28;19960;-79
2022/01/14 00:38:56;;;;;;;;;;;5.60;99.90;;;;;;5073239;28;20384;-79
2022/01/14 00:41:21;;;;;;;;;;;5.90;99.90;;;;;;5056377;28;19928;-76
2022/01/14 00:43:47;;;;;;;;;;;6.50;99.90;;;;;;5057504;28;19947;-77
2022/01/14 00:46:13;;;;;;;;;;;6.40;99.90;;;;;;5056095;28;19924;-80
2022/01/14 00:48:39;;;;;;;;;;;5.90;99.90;;;;;;5056268;28;19920;-78
2022/01/14 00:51:05;;;;;;;;;;;5.50;99.90;;;;;;5057537;28;20347;-76
2022/01/14 00:53:30;;;;;;;;;;;5.50;99.90;;;;;;5057370;28;20078;-76
2022/01/14 00:56:06;;;;;;;;;;;5.90;99.90;;;;;;5057325;28;20061;-76
2022/01/14 01:01:16;;;;;;;;;;;5.20;99.90;;;;;;5057069;28;19928;-77
2022/01/14 01:03:42;;;;;;;;;;;6.70;99.90;;;;;;5056291;28;20264;-76
2022/01/14 01:06:08;;;;;;;;;;;5.50;99.90;;;;;;5057226;28;20334;-76
2022/01/14 01:08:34;;;;;;;;;;;5.50;99.90;;;;;;5057202;28;19921;-77
2022/01/14 01:11:03;;;;;;;;;;;6.40;99.90;;;;;;5056960;28;19924;-78
2022/01/14 01:13:33;;;;;;;;;;;5.50;99.90;;;;;;5056848;28;20367;-79
2022/01/14 01:15:59;;;;;;;;;;;5.50;99.90;;;;;;5056397;28;19921;-80
2022/01/14 01:18:25;;;;;;;;;;;5.50;99.90;;;;;;5056957;28;20027;-80
2022/01/14 01:20:51;;;;;;;;;;;6.70;99.90;;;;;;5056771;28;19970;-76
2022/01/14 01:23:17;;;;;;;;;;;5.90;99.90;;;;;;5056772;28;20326;-79
2022/01/14 01:25:51;;;;;;;;;;;5.70;99.90;;;;;;5056708;28;19967;-76
2022/01/14 01:28:17;;;;;;;;;;;5.50;99.90;;;;;;5056581;28;19920;-76
2022/01/14 01:30:52;;;;;;;;;;;5.50;99.90;;;;;;5056429;28;19933;-76
2022/01/14 01:33:18;;;;;;;;;;;5.50;99.90;;;;;;5055651;28;20007;-76
2022/01/14 01:35:43;;;;;;;;;;;5.50;99.90;;;;;;5056461;28;19975;-76
2022/01/14 01:38:15;;;;;;;;;;;6.20;99.90;;;;;;5056552;28;20417;-76
2022/01/14 01:40:41;;;;;;;;;;;5.50;99.90;;;;;;5056154;28;20295;-77
2022/01/14 01:43:09;;;;;;;;;;;5.60;99.90;;;;;;5056211;28;19928;-76
2022/01/14 01:45:35;;;;;;;;;;;5.50;99.90;;;;;;5056382;28;19978;-76
2022/01/14 01:48:01;;;;;;;;;;;5.50;99.90;;;;;;5055393;28;19964;-75
2022/01/14 01:50:28;;;;;;;;;;;5.70;99.90;;;;;;5055397;28;19928;-81
2022/01/14 01:52:54;;;;;;;;;;;6.10;99.90;;;;;;5056308;28;20011;-80
2022/01/14 01:55:20;;;;;;;;;;;5.60;99.90;;;;;;5056142;28;20017;-79
2022/01/14 01:57:47;;;;;;;;;;;5.60;99.90;;;;;;5056024;28;19927;-79
2022/01/14 02:00:13;;;;;;;;;;;5.60;99.90;;;;;;5056000;28;20011;-76
2022/01/14 02:02:39;;;;;;;;;;;5.60;99.90;;;;;;5056150;28;19991;-79
2022/01/14 02:05:05;;;;;;;;;;;6.70;99.90;;;;;;5054917;28;20375;-78
2022/01/14 02:07:31;;;;;;;;;;;5.60;99.90;;;;;;5056005;28;19931;-79
2022/01/14 02:09:57;;;;;;;;;;;6.70;99.90;;;;;;5055862;28;19921;-76
2022/01/14 02:12:23;;;;;;;;;;;7.20;99.90;;;;;;5055810;28;20257;-75
2022/01/14 02:15:12;;;;;;;;;;;5.80;99.90;;;;;;5055496;28;19970;-78
2022/01/14 02:23:01;;;;;;;;;;;5.60;99.90;;;;;;5055470;28;19928;-76
2022/01/14 02:25:30;;;;;;;;;;;6.10;99.90;;;;;;5055772;28;19927;-75
2022/01/14 02:27:56;;;;;;;;;;;5.60;99.90;;;;;;5055727;28;19921;-80
2022/01/14 02:30:22;;;;;;;;;;;5.60;99.90;;;;;;5055337;28;19943;-80
2022/01/14 02:32:48;;;;;;;;;;;6.60;99.90;;;;;;5055510;28;19927;-78
2022/01/14 02:35:13;;;;;;;;;;;5.60;99.90;;;;;;5055397;28;20342;-76
2022/01/14 02:37:40;;;;;;;;;;;5.50;99.90;;;;;;5055286;28;19928;-77
2022/01/14 02:40:06;;;;;;;;;;;5.50;99.90;;;;;;5054501;28;19928;-77
2022/01/14 02:42:31;;;;;;;;;;;5.50;99.90;;;;;;5055348;28;19921;-77
2022/01/14 02:45:02;;;;;;;;;;;5.50;99.90;;;;;;5055056;28;19928;-76
2022/01/14 02:47:27;;;;;;;;;;;5.50;99.90;;;;;;5055231;28;19921;-77
2022/01/14 02:49:53;;;;;;;;;;;5.50;99.90;;;;;;5055021;28;19920;-76
2022/01/14 02:52:27;;;;;;;;;;;5.80;99.90;;;;;;5055066;28;19920;-79
2022/01/14 02:55:13;;;;;;;;;;;5.50;99.90;;;;;;5054639;28;19921;-76
2022/01/14 02:57:40;;;;;;;;;;;5.50;99.90;;;;;;5055079;28;19960;-77
2022/01/14 03:00:06;;;;;;;;;;;5.50;99.90;;;;;;5054741;28;19924;-77
2022/01/14 03:02:33;;;;;;;;;;;5.50;99.90;;;;;;5054816;28;19966;-76
2022/01/14 03:04:59;;;;;;;;;;;5.60;99.90;;;;;;5054770;28;19921;-80
2022/01/14 03:07:25;;;;;;;;;;;4.70;99.90;;;;;;5054675;28;20319;-77
2022/01/14 03:09:50;;;;;;;;;;;6.30;99.90;;;;;;5054649;28;20295;-76
2022/01/14 03:12:16;;;;;;;;;;;6.50;99.90;;;;;;5054749;28;19927;-76
2022/01/14 03:14:41;;;;;;;;;;;4.20;99.90;;;;;;5054508;28;20347;-78
2022/01/14 03:17:07;;;;;;;;;;;5.50;99.90;;;;;;5054616;28;19921;-76
2022/01/14 03:19:32;;;;;;;;;;;5.50;99.90;;;;;;5054511;28;19950;-76
2022/01/14 03:22:18;;;;;;;;;;;5.50;99.90;;;;;;5054290;28;19928;-76
2022/01/14 03:27:09;;;;;;;;;;;5.50;99.90;;;;;;5054352;28;19975;-77
2022/01/14 03:29:34;;;;;;;;;;;7.10;99.90;;;;;;5054247;28;19920;-78
2022/01/14 03:32:00;;;;;;;;;;;5.70;99.90;;;;;;5053229;28;19925;-79
2022/01/14 03:34:26;;;;;;;;;;;7.20;99.90;;;;;;5053205;28;19920;-78
2022/01/14 03:36:51;;;;;;;;;;;5.50;99.90;;;;;;5054385;28;19925;-76
2022/01/14 03:39:18;;;;;;;;;;;5.90;99.90;;;;;;5054370;28;19982;-76
2022/01/14 03:41:44;;;;;;;;;;;7.10;99.90;;;;;;5054298;28;20023;-76
2022/01/14 03:44:10;;;;;;;;;;;5.50;99.90;;;;;;5054080;28;20313;-77
2022/01/14 03:46:35;;;;;;;;;;;5.50;99.90;;;;;;5053828;28;20268;-77
2022/01/14 03:49:01;;;;;;;;;;;5.50;99.90;;;;;;5054006;28;19928;-79
2022/01/14 03:51:28;;;;;;;;;;;5.50;99.90;;;;;;5053839;28;20041;-76
2022/01/14 03:53:54;;;;;;;;;;;5.50;99.90;;;;;;5054023;28;19927;-77
2022/01/14 03:56:21;;;;;;;;;;;5.50;99.90;;;;;;5054202;28;19974;-78
2022/01/14 03:58:46;;;;;;;;;;;6.90;99.90;;;;;;5053908;28;19924;-78
2022/01/14 04:01:12;;;;;;;;;;;5.40;99.90;;;;;;5053732;28;19921;-76
2022/01/14 04:03:38;;;;;;;;;;;5.50;99.90;;;;;;5053797;28;19968;-76
2022/01/14 04:06:04;;;;;;;;;;;5.50;99.90;;;;;;5053454;28;19928;-76
2022/01/14 04:08:30;;;;;;;;;;;5.40;99.90;;;;;;5053190;28;19936;-77
2022/01/14 04:10:57;;;;;;;;;;;5.40;99.90;;;;;;5053843;28;19921;-76
2022/01/14 04:13:36;;;;;;;;;;;5.50;99.90;;;;;;5053840;28;20350;-76
2022/01/14 04:16:02;;;;;;;;;;;5.80;99.90;;;;;;5053390;28;20376;-76
2022/01/14 04:18:27;;;;;;;;;;;5.50;99.90;;;;;;5053540;28;19964;-76
2022/01/14 04:20:53;;;;;;;;;;;5.40;99.90;;;;;;5053381;28;19924;-77
2022/01/14 04:23:22;;;;;;;;;;;4.70;99.90;;;;;;5053637;28;19925;-81
2022/01/14 04:25:48;;;;;;;;;;;5.50;99.90;;;;;;5053689;28;20338;-76
2022/01/14 04:28:14;;;;;;;;;;;5.50;99.90;;;;;;5053585;28;19920;-76
2022/01/14 04:30:40;;;;;;;;;;;5.60;99.90;;;;;;5052531;28;19966;-78
2022/01/14 04:33:05;;;;;;;;;;;6.40;99.90;;;;;;5052464;28;20014;-76
2022/01/14 04:35:32;;;;;;;;;;;7.00;99.90;;;;;;5052466;28;19935;-76
2022/01/14 04:37:57;;;;;;;;;;;4.80;99.90;;;;;;5053570;28;19921;-76
2022/01/14 04:40:23;;;;;;;;;;;5.60;99.90;;;;;;5053463;28;19927;-75
2022/01/14 04:42:48;;;;;;;;;;;7.10;99.90;;;;;;5053503;28;19928;-77
2022/01/14 04:45:26;;;;;;;;;;;5.60;99.90;;;;;;5053304;28;20290;-76
2022/01/14 04:47:52;;;;;;;;;;;5.60;99.90;;;;;;5053344;28;20279;-76
2022/01/14 04:50:18;;;;;;;;;;;5.60;99.90;;;;;;5053503;28;20011;-76
2022/01/14 04:52:46;;;;;;;;;;;5.50;99.90;;;;;;5053436;28;20371;-80
2022/01/14 04:55:12;;;;;;;;;;;5.50;99.90;;;;;;5053378;28;19972;-76
2022/01/14 04:57:38;;;;;;;;;;;5.50;99.90;;;;;;5053293;28;19925;-76
2022/01/14 05:00:05;;;;;;;;;;;5.70;99.90;;;;;;5053112;28;19921;-76
2022/01/14 05:02:31;;;;;;;;;;;5.50;99.90;;;;;;5052262;28;20007;-76
2022/01/14 05:04:58;;;;;;;;;;;6.00;99.90;;;;;;5053071;28;19967;-76
2022/01/14 05:07:26;;;;;;;;;;;5.50;99.90;;;;;;5053267;28;19920;-76
2022/01/14 05:10:08;;;;;;;;;;;5.50;99.90;;;;;;5053227;28;19925;-78
2022/01/14 05:12:35;;;;;;;;;;;5.70;99.90;;;;;;5052179;28;19921;-79
2022/01/14 05:15:01;;;;;;;;;;;5.10;99.90;;;;;;5052977;28;20011;-76
2022/01/14 05:17:27;;;;;;;;;;;6.50;99.90;;;;;;5053010;28;19974;-76
2022/01/14 05:19:54;;;;;;;;;;;6.90;99.90;;;;;;5055350;28;20346;-75
2022/01/14 05:22:21;;;;;;;;;;;5.40;99.90;;;;;;5056919;28;19921;-77
2022/01/14 05:24:46;;;;;;;;;;;5.30;99.90;;;;;;5056773;28;19920;-76
2022/01/14 05:27:12;;;;;;;;;;;5.40;99.90;;;;;;5056668;28;19928;-76
2022/01/14 05:29:37;;;;;;;;;;;5.50;99.90;;;;;;5056757;28;19960;-76
2022/01/14 05:32:04;;;;;;;;;;;5.40;99.90;;;;;;5056328;28;19924;-75
2022/01/14 05:34:30;;;;;;;;;;;5.40;99.90;;;;;;5056692;28;19920;-76
2022/01/14 05:36:56;;;;;;;;;;;5.00;99.90;;;;;;5055719;28;19927;-76
2022/01/14 05:39:23;;;;;;;;;;;5.50;99.90;;;;;;5056553;28;20368;-77
2022/01/14 05:41:49;;;;;;;;;;;5.60;99.90;;;;;;5056481;28;19920;-79
2022/01/14 05:44:14;;;;;;;;;;;5.40;99.90;;;;;;5056454;28;19974;-76
2022/01/14 05:46:40;;;;;;;;;;;6.90;99.90;;;;;;5056127;28;19924;-79
2022/01/14 05:49:05;;;;;;;;;;;5.40;99.90;;;;;;5056457;28;19921;-78
2022/01/14 05:51:32;;;;;;;;;;;5.90;99.90;;;;;;5056405;28;20330;-77
2022/01/14 05:53:57;;;;;;;;;;;5.80;99.90;;;;;;5056133;28;20388;-76
2022/01/14 05:56:23;;;;;;;;;;;5.60;99.90;;;;;;5054900;28;19972;-77
2022/01/14 05:58:48;;;;;;;;;;;5.50;99.90;;;;;;5056104;28;19920;-79
2022/01/14 06:01:14;;;;;;;;;;;4.30;99.90;;;;;;5056129;28;19921;-76
2022/01/14 06:03:40;;;;;;;;;;;5.50;99.90;;;;;;5055920;28;19920;-79
2022/01/14 06:06:05;;;;;;;;;;;5.60;99.90;;;;;;5055167;28;19921;-76
2022/01/14 06:08:31;;;;;;;;;;;5.60;99.90;;;;;;5054837;28;19924;-76
2022/01/14 06:10:57;;;;;;;;;;;5.60;99.90;;;;;;5054844;28;19921;-76
2022/01/14 06:13:22;;;;;;;;;;;5.60;99.90;;;;;;5054828;28;20007;-76
2022/01/14 06:15:48;;;;;;;;;;;5.80;99.90;;;;;;5054633;28;19921;-77
2022/01/14 06:18:13;;;;;;;;;;;5.60;99.90;;;;;;5055650;28;19921;-76
2022/01/14 06:20:39;;;;;;;;;;;7.10;99.90;;;;;;5055553;28;19925;-78
2022/01/14 06:23:04;;;;;;;;;;;6.80;99.90;;;;;;5054836;28;19927;-76
2022/01/14 06:25:30;;;;;;;;;;;4.50;99.90;;;;;;5055728;28;19968;-76
2022/01/14 06:27:56;;;;;;;;;;;5.60;99.90;;;;;;5054683;28;19925;-77
2022/01/14 06:30:21;;;;;;;;;;;5.60;99.90;;;;;;5054374;28;19927;-79
2022/01/14 06:32:50;;;;;;;;;;;5.60;99.90;;;;;;5055449;28;20023;-76
2022/01/14 06:35:16;;;;;;;;;;;6.90;99.90;;;;;;5055619;28;19921;-77
2022/01/14 06:37:42;;;;;;;;;;;5.60;99.90;;;;;;5055540;28;19928;-77
2022/01/14 06:40:08;;;;;;;;;;;5.60;99.90;;;;;;5055459;28;19921;-77
2022/01/14 06:42:33;;;;;;;;;;;5.60;99.90;;;;;;5055356;28;20033;-77
2022/01/14 06:44:59;;;;;;;;;;;5.60;99.90;;;;;;5070651;28;20375;-76
2022/01/14 06:47:25;;;;;;;;;;;6.10;99.90;;;;;;5055152;28;19924;-77
2022/01/14 06:49:51;;;;;;;;;;;6.60;99.90;;;;;;5055119;28;19925;-76
2022/01/14 06:52:17;;;;;;;;;;;5.60;99.90;;;;;;5055323;28;20390;-77
2022/01/14 06:54:43;;;;;;;;;;;5.70;99.90;;;;;;5054171;28;19920;-77
2022/01/14 06:57:08;;;;;;;;;;;5.60;99.90;;;;;;5055044;28;19927;-76
2022/01/14 06:59:34;;;;;;;;;;;5.60;99.90;;;;;;5054987;28;19927;-75
2022/01/14 07:02:00;;;;;;;;;;;5.60;99.90;;;;;;5054688;28;19929;-76
2022/01/14 07:04:25;;;;;;;;;;;5.60;99.90;;;;;;5054791;28;19920;-79
2022/01/14 07:06:51;;;;;;;;;;;6.40;99.90;;;;;;5053802;28;19928;-76
2022/01/14 07:09:17;;;;;;;;;;;5.60;99.90;;;;;;5054959;28;19928;-80
2022/01/14 07:11:47;;;;;;;;;;;6.40;99.90;;;;;;5054806;28;19960;-76
2022/01/14 07:14:13;;;;;;;;;;;6.10;99.90;;;;;;5054720;28;19928;-79
2022/01/14 07:16:38;;;;;;;;;;;7.00;99.90;;;;;;5054345;28;19921;-76
2022/01/14 07:19:04;;;;;;;;;;;5.60;99.90;;;;;;5053557;28;19928;-76
2022/01/14 07:21:30;;;;;;;;;;;5.90;99.90;;;;;;5054602;28;19932;-80
2022/01/14 07:23:55;;;;;;;;;;;4.20;99.90;;;;;;5053788;28;20015;-77
2022/01/14 07:26:21;;;;;;;;;;;5.60;99.90;;;;;;5054613;28;19932;-75
2022/01/14 07:28:47;;;;;;;;;;;5.60;99.90;;;;;;5054520;28;19928;-77
2022/01/14 07:31:12;;;;;;;;;;;3.90;99.90;;;;;;5054523;28;19925;-75
2022/01/14 07:33:38;;;;;;;;;;;5.60;99.90;;;;;;5069781;28;19928;-79
2022/01/14 07:36:04;;;;;;;;;;;5.60;99.90;;;;;;5054169;28;19924;-76
2022/01/14 07:38:29;;;;;;;;;;;5.60;99.90;;;;;;5053140;28;19920;-77
2022/01/14 07:40:55;;;;;;;;;;;5.60;99.90;;;;;;5054099;28;19920;-77
2022/01/14 07:43:21;;;;;;;;;;;5.60;99.90;;;;;;5054193;28;19924;-76
2022/01/14 07:45:47;;;;;;;;;;;6.90;99.90;;;;;;5054091;28;20306;-76
2022/01/14 07:48:13;;;;;;;;;;;7.10;99.90;;;;;;5054048;28;19928;-76
2022/01/14 07:50:39;;;;;;;;;;;6.20;99.90;;;;;;5054016;28;19966;-76
2022/01/14 07:53:04;;;;;;;;;;;6.90;99.90;;;;;;5053128;28;20368;-76
2022/01/14 07:55:30;;;;;;;;;;;5.70;99.90;;;;;;5054066;28;20034;-77
2022/01/14 07:57:56;;;;;;;;;;;7.20;99.90;;;;;;5053763;28;19928;-76
2022/01/14 08:00:21;;;;;;;;;;;6.30;99.90;;;;;;5053685;28;19927;-76
2022/01/14 08:02:47;;;;;;;;;;;5.90;99.90;;;;;;5053951;28;19973;-76
2022/01/14 08:05:15;;;;;;;;;;;7.00;99.90;;;;;;5053780;28;20398;-78
2022/01/14 08:07:45;;;;;;;;;;;5.70;99.90;;;;;;5053982;28;19921;-76
2022/01/14 08:10:12;;;;;;;;;;;5.70;99.90;;;;;;5053787;28;19924;-76
2022/01/14 08:12:38;;;;;;;;;;;6.50;99.90;;;;;;5053787;28;19927;-76
2022/01/14 08:15:04;;;;;;;;;;;5.70;99.90;;;;;;5052320;28;20011;-77
2022/01/14 08:17:31;;;;;;;;;;;5.70;99.90;;;;;;5053616;28;19991;-75
2022/01/14 08:19:57;;;;;;;;;;;5.70;99.90;;;;;;5052429;28;19920;-76
2022/01/14 08:22:22;;;;;;;;;;;5.70;99.90;;;;;;5053789;28;19927;-76
2022/01/14 08:24:48;;;;;;;;;;;6.20;99.90;;;;;;5053665;28;19973;-77
2022/01/14 08:27:14;;;;;;;;;;;5.80;99.90;;;;;;5052686;28;20288;-77
2022/01/14 08:29:39;;;;;;;;;;;5.70;99.90;;;;;;5053614;28;19943;-76
2022/01/14 08:32:05;;;;;;;;;;;6.20;99.90;;;;;;5053415;28;19974;-76
2022/01/14 08:34:31;;;;;;;;;;;5.80;99.90;;;;;;5053512;28;19931;-76
2022/01/14 08:36:57;;;;;;;;;;;6.50;99.90;;;;;;5052172;28;19928;-76
2022/01/14 08:39:22;;;;;;;;;;;5.80;99.90;;;;;;5053529;28;20375;-76
2022/01/14 08:41:48;;;;;;;;;;;5.90;99.90;;;;;;5052388;28;19994;-80
2022/01/14 08:44:14;;;;;;;;;;;6.00;99.90;;;;;;5053481;28;20269;-76
2022/01/14 08:46:40;;;;;;;;;;;6.30;99.90;;;;;;5053364;28;20349;-77
2022/01/14 08:49:06;;;;;;;;;;;5.90;99.90;;;;;;5053348;28;19927;-75
2022/01/14 08:51:32;;;;;;;;;;;5.90;99.90;;;;;;5035580;28;20011;-75
2022/01/14 08:54:02;;;;;;;;;;;6.60;99.90;;;;;;5055269;28;19929;-75
2022/01/14 08:56:28;;;;;;;;;;;6.00;99.90;;;;;;5056408;28;19920;-75
2022/01/14 08:58:53;;;;;;;;;;;6.20;99.90;;;;;;5057091;28;20364;-79
2022/01/14 09:01:19;;;;;;;;;;;5.90;99.90;;;;;;5056962;28;19920;-76
2022/01/14 09:03:45;;;;;;;;;;;5.90;99.90;;;;;;5057183;28;19921;-76
2022/01/14 09:06:10;;;;;;;;;;;6.00;99.90;;;;;;5056077;28;19987;-76
2022/01/14 09:08:36;;;;;;;;;;;4.50;99.90;;;;;;5057568;28;19921;-79
2022/01/14 09:11:02;;;;;;;;;;;6.00;99.90;;;;;;5057108;28;19920;-76
2022/01/14 09:13:27;;;;;;;;;;;6.30;99.90;;;;;;5057079;28;20368;-76
2022/01/14 09:15:53;;;;;;;;;;;6.00;99.90;;;;;;5055289;28;20015;-80
2022/01/14 09:18:18;;;;;;;;;;;6.00;99.90;;;;;;5056864;28;19920;-77
2022/01/14 09:20:44;;;;;;;;;;;6.00;99.90;;;;;;5056693;28;20017;-78
2022/01/14 09:23:15;;;;;;;;;;;6.50;99.90;;;;;;5055669;28;19927;-81
2022/01/14 09:25:41;;;;;;;;;;;4.50;99.90;;;;;;5056848;28;20314;-76
2022/01/14 09:28:06;;;;;;;;;;;6.10;99.90;;;;;;5056867;28;20019;-77
2022/01/14 09:30:32;;;;;;;;;;;6.10;99.90;;;;;;5056731;28;19920;-76
2022/01/14 09:32:57;;;;;;;;;;;6.20;99.90;;;;;;5056665;28;20302;-78
2022/01/14 09:35:23;;;;;;;;;;;6.90;99.90;;;;;;5056537;28;19975;-77
2022/01/14 09:37:50;;;;;;;;;;;6.20;99.90;;;;;;5056436;28;19947;-77
2022/01/14 09:40:16;;;;;;;;;;;7.40;99.90;;;;;;5056570;28;19921;-76
2022/01/14 09:42:48;;;;;;;;;;;6.20;99.90;;;;;;5056731;28;19928;-78
2022/01/14 09:45:14;;;;;;;;;;;6.30;99.90;;;;;;5056497;28;19966;-78
2022/01/14 09:47:40;;;;;;;;;;;6.30;99.90;;;;;;5055262;28;19920;-78
2022/01/14 09:50:07;;;;;;;;;;;6.70;99.90;;;;;;5054990;28;19921;-77
2022/01/14 09:52:33;;;;;;;;;;;6.30;99.90;;;;;;5056142;28;19927;-76
2022/01/14 09:54:58;;;;;;;;;;;6.70;99.90;;;;;;5055411;28;19921;-76
2022/01/14 09:57:24;;;;;;;;;;;6.40;99.90;;;;;;5056143;28;19947;-78
2022/01/14 09:59:50;;;;;;;;;;;7.20;99.90;;;;;;5056223;28;20281;-77
2022/01/14 10:02:28;;;;;;;;;;;7.40;99.90;;;;;;5054596;28;20004;-76
2022/01/14 10:04:54;;;;;;;;;;;6.50;99.90;;;;;;5052906;28;19927;-80
2022/01/14 10:07:19;;;;;;;;;;;7.50;99.90;;;;;;5055651;28;20291;-79
2022/01/14 10:09:53;;;;;;;;;;;6.50;99.90;;;;;;5071320;28;19921;-77
2022/01/14 10:12:20;;;;;;;;;;;7.90;99.90;;;;;;5055818;28;19921;-77
2022/01/14 10:14:54;;;;;;;;;;;6.50;99.90;;;;;;5055496;28;20379;-76
2022/01/14 10:17:19;;;;;;;;;;;6.50;99.90;;;;;;5055715;28;19921;-79
2022/01/14 10:19:46;;;;;;;;;;;6.60;99.90;;;;;;5055381;28;20352;-76
2022/01/14 10:22:28;;;;;;;;;;;7.40;99.90;;;;;;5054183;28;20023;-78
2022/01/14 10:25:02;;;;;;;;;;;6.60;99.90;;;;;;5055528;28;19920;-80
2022/01/14 10:27:31;;;;;;;;;;;5.80;99.90;;;;;;5055456;28;19964;-78
2022/01/14 10:30:05;;;;;;;;;;;6.60;99.90;;;;;;5054417;28;19971;-76
2022/01/14 10:32:33;;;;;;;;;;;6.60;99.90;;;;;;5055080;28;19931;-75
2022/01/14 10:35:06;;;;;;;;;;;6.70;99.90;;;;;;5055377;28;19921;-76
2022/01/14 10:37:33;;;;;;;;;;;6.60;99.90;;;;;;5054422;28;19927;-77
2022/01/14 10:39:59;;;;;;;;;;;7.50;99.90;;;;;;5055270;28;19920;-77
2022/01/14 10:42:24;;;;;;;;;;;7.60;99.90;;;;;;5054320;28;19981;-80
2022/01/14 10:44:50;;;;;;;;;;;5.00;99.90;;;;;;5055067;28;20384;-78
2022/01/14 10:47:20;;;;;;;;;;;6.70;99.90;;;;;;5054819;28;20020;-76
2022/01/14 10:49:46;;;;;;;;;;;6.70;99.90;;;;;;5055162;28;20273;-76
2022/01/14 10:52:14;;;;;;;;;;;8.00;99.90;;;;;;5055054;28;19977;-79
2022/01/14 10:54:41;;;;;;;;;;;6.70;99.90;;;;;;5054953;28;19921;-80
2022/01/14 10:57:13;;;;;;;;;;;6.70;99.90;;;;;;5053566;28;19925;-79
2022/01/14 10:59:39;;;;;;;;;;;6.70;99.90;;;;;;5054665;28;19968;-77
2022/01/14 11:02:23;;;;;;;;;;;6.70;99.90;;;;;;5054705;28;20016;-78
2022/01/14 11:05:07;;;;;;;;;;;6.70;99.90;;;;;;5054733;28;19921;-76
2022/01/14 11:07:33;;;;;;;;;;;6.70;99.90;;;;;;5054691;28;19920;-76
2022/01/14 11:09:59;;;;;;;;;;;6.70;99.90;;;;;;5054492;28;19981;-78
2022/01/14 11:12:26;;;;;;;;;;;6.80;99.90;;;;;;5054739;28;20372;-77
2022/01/14 11:14:52;;;;;;;;;;;6.80;99.90;;;;;;5054387;28;20268;-76
2022/01/14 11:17:18;;;;;;;;;;;6.80;99.90;;;;;;5053892;28;19920;-76
2022/01/14 11:19:48;;;;;;;;;;;6.80;99.90;;;;;;5054298;28;19998;-76
2022/01/14 11:24:58;;;;;;;;;;;6.80;99.90;;;;;;5054172;28;20042;-76
2022/01/14 11:27:25;;;;;;;;;;;8.00;99.90;;;;;;5054285;28;19921;-76
2022/01/14 11:29:57;;;;;;;;;;;6.80;99.90;;;;;;5054360;28;19932;-76
2022/01/14 11:32:25;;;;;;;;;;;7.20;99.90;;;;;;5053966;28;19927;-78
2022/01/14 11:34:50;;;;;;;;;;;6.90;99.90;;;;;;5054090;28;19983;-76
2022/01/14 11:37:46;;;;;;;;;;;6.90;99.90;;;;;;5053082;28;19975;-76
2022/01/14 11:40:15;;;;;;;;;;;6.90;99.90;;;;;;5015415;28;19925;-76
2022/01/14 11:43:01;;;;;;;;;;;6.90;99.90;;;;;;5032000;28;19966;-78
2022/01/14 11:45:40;;;;;;;;;;;6.90;99.90;;;;;;5031757;28;19927;-77
2022/01/14 11:48:07;;;;;;;;;;;6.90;99.90;;;;;;5031603;28;19924;-77
2022/01/14 11:50:33;;;;;;;;;;;6.90;99.90;;;;;;5031644;28;20012;-76
2022/01/14 11:53:01;;;;;;;;;;;6.90;99.90;;;;;;5031872;28;20015;-76
2022/01/14 11:55:27;;;;;;;;;;;6.90;99.90;;;;;;5032563;28;20384;-76
2022/01/14 11:57:54;;;;;;;;;;;6.90;99.90;;;;;;5031336;28;19965;-78
2022/01/14 12:00:30;;;;;;;;;;;6.90;99.90;;;;;;5031486;28;20022;-77
2022/01/14 12:03:13;;;;;;;;;;;6.90;99.90;;;;;;5031315;28;20016;-77
2022/01/14 12:05:59;;;;;;;;;;;6.90;99.90;;;;;;5031373;28;20015;-80
2022/01/14 12:08:32;;;;;;;;;;;7.00;99.90;;;;;;5015013;28;19971;-77
2022/01/14 12:11:16;;;;;;;;;;;6.90;99.90;;;;;;5031180;28;19928;-77
2022/01/14 12:13:53;;;;;;;;;;;7.00;99.90;;;;;;5031358;28;19932;-77
2022/01/14 12:16:35;;;;;;;;;;;7.00;99.90;;;;;;5039816;28;19968;-77
2022/01/14 12:19:02;;;;;;;;;;;8.10;99.90;;;;;;5053516;28;19983;-78
2022/01/14 12:21:39;;;;;;;;;;;7.00;99.90;;;;;;5053316;28;20265;-77
2022/01/14 12:24:14;;;;;;;;;;;7.00;99.90;;;;;;5053363;28;19920;-77
2022/01/14 12:26:40;;;;;;;;;;;7.00;99.90;;;;;;5053562;28;19975;-79
2022/01/14 12:29:10;;;;;;;;;;;7.00;99.90;;;;;;5052486;28;19921;-77
2022/01/14 12:31:55;;;;;;;;;;;7.00;99.90;;;;;;5052348;28;19962;-80
2022/01/14 12:34:20;;;;;;;;;;;7.00;99.90;;;;;;5052147;28;20456;-78
2022/01/14 12:36:47;;;;;;;;;;;8.40;99.90;;;;;;5053428;28;20011;-78
2022/01/14 12:39:13;;;;;;;;;;;7.00;99.90;;;;;;5053358;28;19925;-78
2022/01/14 12:41:39;;;;;;;;;;;7.00;99.90;;;;;;5053147;28;19964;-81
2022/01/14 12:44:05;;;;;;;;;;;7.00;99.90;;;;;;5053217;28;19927;-79
2022/01/14 12:46:36;;;;;;;;;;;7.00;99.90;;;;;;5053111;28;19924;-80
2022/01/14 12:49:06;;;;;;;;;;;7.00;99.90;;;;;;5036194;28;19925;-77
2022/01/14 12:51:32;;;;;;;;;;;7.20;99.90;;;;;;5053288;28;19967;-80
2022/01/14 12:53:59;;;;;;;;;;;6.90;99.90;;;;;;5052350;28;19921;-78
2022/01/14 12:56:26;;;;;;;;;;;7.00;99.90;;;;;;5052756;28;19928;-76
2022/01/14 12:58:56;;;;;;;;;;;7.00;99.90;;;;;;5052516;28;20009;-76
2022/01/14 13:01:26;;;;;;;;;;;6.90;99.90;;;;;;5052593;28;20299;-77
2022/01/14 13:03:53;;;;;;;;;;;6.90;99.90;;;;;;5053285;28;19925;-78
2022/01/14 13:06:19;;;;;;;;;;;6.90;99.90;;;;;;5053324;28;19928;-80
2022/01/14 13:08:52;;;;;;;;;;;7.50;99.90;;;;;;5053180;28;19920;-77
2022/01/14 13:11:17;;;;;;;;;;;7.30;99.90;;;;;;5053120;28;20017;-76
2022/01/14 13:13:45;;;;;;;;;;;6.90;99.90;;;;;;5052104;28;19920;-79
2022/01/14 13:16:10;;;;;;;;;;;6.90;99.90;;;;;;5052752;28;19927;-78
2022/01/14 13:18:43;;;;;;;;;;;7.30;99.90;;;;;;5053180;28;19921;-77
2022/01/14 13:21:08;;;;;;;;;;;6.90;99.90;;;;;;5051251;28;19925;-81
2022/01/14 13:23:34;;;;;;;;;;;6.90;99.90;;;;;;5052116;28;20352;-76
2022/01/14 13:26:01;;;;;;;;;;;7.10;99.90;;;;;;5051763;28;19968;-82
2022/01/14 13:28:26;;;;;;;;;;;7.40;99.90;;;;;;5052943;28;20320;-81
2022/01/14 13:30:52;;;;;;;;;;;6.90;99.90;;;;;;5052994;28;19974;-79
2022/01/14 13:33:18;;;;;;;;;;;7.40;99.90;;;;;;5053108;28;19921;-80
2022/01/14 13:35:49;;;;;;;;;;;7.70;99.90;;;;;;5052987;28;20368;-77
2022/01/14 13:38:16;;;;;;;;;;;6.90;99.90;;;;;;5051985;28;20376;-80
2022/01/14 13:40:47;;;;;;;;;;;7.00;99.90;;;;;;5055543;28;19928;-77
2022/01/14 13:43:25;;;;;;;;;;;6.90;99.90;;;;;;5056384;28;19920;-76
2022/01/14 13:46:00;;;;;;;;;;;6.90;99.90;;;;;;5056500;28;19921;-77
2022/01/14 13:48:25;;;;;;;;;;;6.90;99.90;;;;;;5055084;28;20386;-77
2022/01/14 13:50:56;;;;;;;;;;;7.20;99.90;;;;;;5056401;28;19925;-79
2022/01/14 13:53:27;;;;;;;;;;;6.90;99.90;;;;;;5056229;28;19925;-78
2022/01/14 13:55:54;;;;;;;;;;;6.90;99.90;;;;;;5054954;28;20418;-77
2022/01/14 13:58:22;;;;;;;;;;;6.90;99.90;;;;;;5055071;28;19932;-76
2022/01/14 14:00:48;;;;;;;;;;;7.00;99.90;;;;;;5038538;28;20382;-77
2022/01/14 14:03:17;;;;;;;;;;;7.00;99.90;;;;;;5056031;28;19922;-78
2022/01/14 14:05:47;;;;;;;;;;;7.40;99.90;;;;;;5056082;28;20276;-82
2022/01/14 14:08:34;;;;;;;;;;;6.90;99.90;;;;;;5055975;28;19921;-78
2022/01/14 14:16:52;;;;;;;;;;;6.90;99.90;;;;;;5055358;28;19946;-77
2022/01/14 14:19:18;;;;;;;;;;;6.90;99.90;;;;;;5055584;28;19935;-78
2022/01/14 14:21:45;;;;;;;;;;;6.90;99.90;;;;;;5055868;28;20362;-77
2022/01/14 14:24:13;;;;;;;;;;;6.90;99.90;;;;;;5054595;28;19924;-77
2022/01/14 14:26:42;;;;;;;;;;;6.90;99.90;;;;;;5054312;28;19921;-77
2022/01/14 14:29:23;;;;;;;;;;;7.40;99.90;;;;;;5055547;28;20054;-77
2022/01/14 14:31:49;;;;;;;;;;;6.90;99.90;;;;;;5054547;28;19928;-79
2022/01/14 14:34:14;;;;;;;;;;;7.00;99.90;;;;;;5055627;28;19921;-77
2022/01/14 14:36:41;;;;;;;;;;;7.30;99.90;;;;;;5055504;28;19921;-77
2022/01/14 14:39:07;;;;;;;;;;;6.90;99.90;;;;;;5054270;28;20291;-79
2022/01/14 14:41:33;;;;;;;;;;;6.90;99.90;;;;;;5055195;28;19920;-77
2022/01/14 14:43:58;;;;;;;;;;;6.90;99.90;;;;;;5054176;28;19921;-77
2022/01/14 14:46:24;;;;;;;;;;;7.70;99.90;;;;;;5055061;28;20307;-79
2022/01/14 14:48:49;;;;;;;;;;;7.40;99.90;;;;;;5054422;28;19928;-80
2022/01/14 14:51:15;;;;;;;;;;;6.90;99.90;;;;;;5053549;28;19946;-77
2022/01/14 14:53:41;;;;;;;;;;;6.90;99.90;;;;;;5070533;28;20410;-77
2022/01/14 14:56:10;;;;;;;;;;;6.90;99.90;;;;;;5055159;28;19921;-77
2022/01/14 14:58:38;;;;;;;;;;;6.90;99.90;;;;;;5070103;28;19921;-82
2022/01/14 15:01:07;;;;;;;;;;;6.90;99.90;;;;;;5053712;28;19920;-76
2022/01/14 15:03:34;;;;;;;;;;;6.90;99.90;;;;;;5053542;28;20008;-77